Time;durP1;ratioP1;P1;durP2;ratioP2;P2;SDS_P1;SDS_P2;PMS_P1;PMS_P2;Temp;Humidity;BMP_temperature;BMP_pressure;BME280_temperature;BME280_humidity;BME280_pressure;Samples;Min_cycle;Max_cycle;Signal;HPM_P1;HPM_P2
2023/01/17 00:01:48;;;;;;;5.22;3.20;;;4.80;63.80;;;;;;4923452;28;114769;-84
2023/01/17 00:09:55;;;;;;;5.45;3.20;;;4.80;63.60;;;;;;4923343;28;115382;-84
2023/01/17 00:12:28;;;;;;;4.95;3.15;;;4.80;63.70;;;;;;4920710;28;115068;-85
2023/01/17 00:14:57;;;;;;;5.78;3.50;;;4.90;63.60;;;;;;4924055;28;114684;-85
2023/01/17 00:17:26;;;;;;;5.50;3.65;;;4.90;63.30;;;;;;4906829;28;116685;-85
2023/01/17 01:33:37;;;;;;;5.05;2.42;;;4.50;61.10;;;;;;4925322;28;114710;-84
2023/01/17 01:36:07;;;;;;;4.15;2.20;;;4.50;60.90;;;;;;4924148;28;115123;-84
2023/01/17 01:38:34;;;;;;;3.72;1.95;;;4.50;60.80;;;;;;4906889;28;116082;-84
2023/01/17 01:41:03;;;;;;;4.05;2.25;;;4.50;60.80;;;;;;4908403;28;114896;-85
2023/01/17 01:43:48;;;;;;;3.63;2.15;;;4.50;60.80;;;;;;4908703;28;114671;-84
2023/01/17 01:46:21;;;;;;;4.05;2.20;;;4.50;60.80;;;;;;4906513;28;118900;-84
2023/01/17 01:48:58;;;;;;;4.63;2.15;;;4.50;60.80;;;;;;4906507;28;116761;-84
2023/01/17 01:51:40;;;;;;;3.72;2.22;;;4.50;61.10;;;;;;4917717;28;116339;-85
2023/01/17 01:54:27;;;;;;;3.17;1.60;;;4.50;60.90;;;;;;4896435;28;114598;-84
2023/01/17 01:56:55;;;;;;;3.60;2.20;;;4.50;60.80;;;;;;4906808;28;116377;-84
2023/01/17 01:59:22;;;;;;;4.10;2.45;;;4.50;60.80;;;;;;4891110;28;114772;-84
2023/01/17 02:01:51;;;;;;;4.30;2.92;;;4.50;60.90;;;;;;4915799;28;117034;-85
2023/01/17 02:04:19;;;;;;;4.13;2.15;;;4.50;60.80;;;;;;4908263;28;114451;-85
2023/01/17 02:06:50;;;;;;;4.10;2.40;;;4.40;60.80;;;;;;4924249;28;115080;-85
2023/01/17 02:09:17;;;;;;;4.38;2.13;;;4.40;61.00;;;;;;4904154;28;115649;-85
2023/01/17 02:11:45;;;;;;;4.43;2.20;;;4.40;60.80;;;;;;4907784;28;118102;-85
2023/01/17 02:14:17;;;;;;;4.03;2.22;;;4.50;61.10;;;;;;4892346;28;114610;-86
2023/01/17 02:17:19;;;;;;;3.60;2.25;;;4.40;60.80;;;;;;4901538;28;115405;-85
2023/01/17 02:20:02;;;;;;;4.00;2.22;;;4.50;60.90;;;;;;4885696;28;114741;-84
2023/01/17 02:23:04;;;;;;;3.25;1.75;;;4.50;60.80;;;;;;4906774;28;114785;-85
2023/01/17 02:25:53;;;;;;;4.18;2.50;;;4.40;60.90;;;;;;4917648;28;116319;-85
2023/01/17 02:28:55;;;;;;;4.05;2.40;;;4.40;61.00;;;;;;4923726;28;115947;-86
2023/01/17 02:31:38;;;;;;;4.50;2.58;;;4.40;60.70;;;;;;4923406;28;114737;-86
2023/01/17 02:34:13;;;;;;;4.05;2.20;;;4.40;60.90;;;;;;4890014;28;114686;-86
2023/01/17 02:36:51;;;;;;;4.18;2.55;;;4.30;61.00;;;;;;4907508;28;114834;-86
2023/01/17 02:39:31;;;;;;;4.57;2.72;;;4.30;60.90;;;;;;4902750;28;116557;-84
2023/01/17 02:42:09;;;;;;;4.20;2.47;;;4.30;61.00;;;;;;4920746;28;114796;-84
2023/01/17 02:44:41;;;;;;;4.53;2.53;;;4.20;61.10;;;;;;4907128;28;114846;-84
2023/01/17 02:47:35;;;;;;;5.78;2.80;;;4.20;61.00;;;;;;4907500;28;114504;-84
2023/01/17 02:50:12;;;;;;;4.40;2.85;;;4.20;61.10;;;;;;4904758;28;117262;-85
2023/01/17 02:52:51;;;;;;;4.68;2.63;;;4.10;61.30;;;;;;4890117;28;116110;-84
2023/01/17 02:55:34;;;;;;;5.30;2.60;;;4.10;61.30;;;;;;4907460;28;114737;-84
2023/01/17 02:58:18;;;;;;;5.03;2.55;;;4.10;61.40;;;;;;4921600;28;118227;-85
2023/01/17 03:01:32;;;;;;;4.88;2.80;;;4.10;61.40;;;;;;4921982;28;115518;-85
2023/01/17 03:04:05;;;;;;;4.90;2.80;;;4.10;61.40;;;;;;4890058;28;114722;-84
2023/01/17 03:06:38;;;;;;;7.32;2.55;;;4.00;61.60;;;;;;4891254;28;114478;-84
2023/01/17 03:09:06;;;;;;;5.32;2.97;;;4.10;61.30;;;;;;4922119;28;114843;-86
2023/01/17 03:11:33;;;;;;;5.57;3.00;;;4.00;61.60;;;;;;4921465;28;117615;-85
2023/01/17 03:14:02;;;;;;;5.07;3.20;;;4.00;61.60;;;;;;4921857;28;114770;-86
2023/01/17 03:16:32;;;;;;;5.25;3.05;;;4.00;61.50;;;;;;4920940;28;114760;-84
2023/01/17 03:19:00;;;;;;;5.15;2.78;;;4.00;61.30;;;;;;4921620;28;115923;-85
2023/01/17 03:21:27;;;;;;;5.80;3.20;;;4.00;61.50;;;;;;4906224;28;115305;-85
2023/01/17 03:23:54;;;;;;;4.60;2.92;;;4.00;61.50;;;;;;4921979;28;114692;-85
2023/01/17 03:26:21;;;;;;;4.82;2.90;;;4.00;61.40;;;;;;4907223;28;115513;-84
2023/01/17 03:28:49;;;;;;;6.20;3.13;;;4.00;61.40;;;;;;4906997;28;114814;-84
2023/01/17 03:31:18;;;;;;;5.20;3.03;;;4.00;61.40;;;;;;4922730;28;115801;-85
2023/01/17 03:33:45;;;;;;;4.72;2.85;;;3.90;61.40;;;;;;4907233;28;114728;-84
2023/01/17 03:36:13;;;;;;;5.28;2.78;;;3.90;61.50;;;;;;4891294;28;114495;-85
2023/01/17 03:38:40;;;;;;;4.65;2.78;;;3.90;61.50;;;;;;4907449;28;115289;-84
2023/01/17 03:41:07;;;;;;;5.30;2.63;;;3.90;61.50;;;;;;4906711;28;117096;-84
2023/01/17 03:43:34;;;;;;;5.53;3.10;;;3.90;61.40;;;;;;4906790;28;119245;-85
2023/01/17 03:46:20;;;;;;;4.22;2.50;;;3.90;61.60;;;;;;4923917;28;114523;-85
2023/01/17 03:48:47;;;;;;;5.55;2.85;;;3.90;61.80;;;;;;4888466;28;114764;-86
2023/01/17 03:51:15;;;;;;;5.05;2.85;;;3.90;61.80;;;;;;4900319;28;115229;-86
2023/01/17 03:53:42;;;;;;;4.18;2.47;;;3.90;61.80;;;;;;4921226;28;115110;-85
2023/01/17 03:56:09;;;;;;;3.63;2.08;;;3.90;61.70;;;;;;4889238;28;115126;-86
2023/01/17 03:58:36;;;;;;;3.28;1.98;;;3.90;61.60;;;;;;4901724;28;114787;-85
2023/01/17 04:01:06;;;;;;;4.03;2.38;;;3.90;61.50;;;;;;4922387;28;116166;-86
2023/01/17 04:03:33;;;;;;;3.92;2.38;;;4.00;61.50;;;;;;4875044;28;114865;-87
2023/01/17 04:06:01;;;;;;;4.70;2.38;;;4.00;61.30;;;;;;4923506;28;114726;-86
2023/01/17 04:08:29;;;;;;;3.80;2.70;;;4.10;61.40;;;;;;4907573;28;114752;-85
2023/01/17 04:10:58;;;;;;;5.47;2.83;;;4.00;61.10;;;;;;4893176;28;115129;-85
2023/01/17 04:13:25;;;;;;;4.80;2.60;;;4.00;61.30;;;;;;4909528;28;115530;-85
2023/01/17 04:15:53;;;;;;;4.30;2.50;;;4.10;61.50;;;;;;4910341;28;114634;-85
2023/01/17 04:18:21;;;;;;;4.20;2.60;;;4.10;61.30;;;;;;4910805;28;115551;-85
2023/01/17 04:20:51;;;;;;;5.72;3.13;;;4.10;61.50;;;;;;4909924;28;115305;-85
2023/01/17 04:23:18;;;;;;;4.35;2.72;;;4.10;61.30;;;;;;4909296;28;115137;-85
2023/01/17 04:25:46;;;;;;;5.25;3.08;;;4.00;61.40;;;;;;4925624;28;114417;-85
2023/01/17 04:28:13;;;;;;;5.72;3.10;;;4.00;61.60;;;;;;4907362;28;114632;-85
2023/01/17 04:30:40;;;;;;;6.05;3.28;;;4.00;61.60;;;;;;4890550;28;115467;-84
2023/01/17 04:33:07;;;;;;;5.68;2.72;;;4.10;61.70;;;;;;4906294;28;114680;-85
2023/01/17 04:35:35;;;;;;;5.72;3.25;;;4.10;61.70;;;;;;4905614;28;114798;-84
2023/01/17 04:38:05;;;;;;;8.05;3.30;;;4.10;61.80;;;;;;4907200;28;114696;-84
2023/01/17 04:40:32;;;;;;;4.65;3.20;;;4.10;61.80;;;;;;4905789;28;115256;-84
2023/01/17 04:42:59;;;;;;;7.28;3.75;;;4.10;61.90;;;;;;4925975;28;115319;-84
2023/01/17 04:45:26;;;;;;;5.00;3.20;;;4.10;61.80;;;;;;4925834;28;118523;-84
2023/01/17 04:47:54;;;;;;;5.75;3.45;;;4.10;62.00;;;;;;4910589;28;114599;-84
2023/01/17 04:50:21;;;;;;;5.63;3.50;;;4.20;62.00;;;;;;4908866;28;117955;-84
2023/01/17 04:52:48;;;;;;;7.25;4.35;;;4.10;62.00;;;;;;4893124;28;116384;-85
2023/01/17 04:55:15;;;;;;;7.65;4.80;;;4.10;62.10;;;;;;4910682;28;114683;-85
2023/01/17 04:57:43;;;;;;;7.68;3.95;;;4.20;62.20;;;;;;4909742;28;114624;-85
2023/01/17 05:00:11;;;;;;;5.93;3.55;;;4.20;62.20;;;;;;4909331;28;115134;-86
2023/01/17 05:02:38;;;;;;;6.32;3.60;;;4.20;62.20;;;;;;4925168;28;114746;-84
2023/01/17 05:05:06;;;;;;;5.82;3.20;;;4.20;62.30;;;;;;4927526;28;118458;-84
2023/01/17 05:07:33;;;;;;;7.38;3.20;;;4.20;62.30;;;;;;4926373;28;114560;-84
2023/01/17 05:10:03;;;;;;;5.07;3.10;;;4.20;62.30;;;;;;4909000;28;116369;-85
2023/01/17 05:12:30;;;;;;;5.45;2.70;;;4.20;62.20;;;;;;4892784;28;115888;-84
2023/01/17 05:14:57;;;;;;;7.38;3.50;;;4.20;62.40;;;;;;4909708;28;114503;-85
2023/01/17 05:17:25;;;;;;;6.68;3.35;;;4.30;62.60;;;;;;4924969;28;114781;-84
2023/01/17 05:19:52;;;;;;;8.00;3.45;;;4.40;62.50;;;;;;4924406;28;115220;-85
2023/01/17 05:22:19;;;;;;;5.30;2.78;;;4.40;62.30;;;;;;4907680;28;114639;-85
2023/01/17 05:24:49;;;;;;;5.78;3.15;;;4.40;62.00;;;;;;4906940;28;115293;-85
2023/01/17 05:27:16;;;;;;;6.43;3.58;;;4.30;61.90;;;;;;4883503;28;115475;-85
2023/01/17 05:29:43;;;;;;;8.93;3.40;;;4.20;62.00;;;;;;4911664;28;115034;-84
2023/01/17 05:32:10;;;;;;;7.63;3.40;;;4.20;62.10;;;;;;4926204;28;114628;-85
2023/01/17 05:34:38;;;;;;;8.23;3.47;;;4.20;62.20;;;;;;4926705;28;114556;-86
2023/01/17 05:37:05;;;;;;;5.78;3.03;;;4.20;62.50;;;;;;4909319;28;114695;-85
2023/01/17 05:39:33;;;;;;;6.72;3.30;;;4.20;62.30;;;;;;4904570;28;115473;-85
2023/01/17 05:42:00;;;;;;;6.30;3.22;;;4.20;62.40;;;;;;4889153;28;115386;-85
2023/01/17 05:44:28;;;;;;;7.97;3.80;;;4.20;62.50;;;;;;4907094;28;114741;-84
2023/01/17 05:46:55;;;;;;;9.30;3.72;;;4.20;62.50;;;;;;4924908;28;115474;-85
2023/01/17 05:49:22;;;;;;;6.90;3.75;;;4.30;62.80;;;;;;4892874;28;115170;-85
2023/01/17 05:51:50;;;;;;;7.85;3.95;;;4.40;62.70;;;;;;4924572;28;114795;-86
2023/01/17 05:54:20;;;;;;;7.25;3.80;;;4.40;62.80;;;;;;4925577;28;114688;-85
2023/01/17 05:56:47;;;;;;;10.77;4.38;;;4.40;62.60;;;;;;4909908;28;114875;-85
2023/01/17 05:59:15;;;;;;;6.95;3.95;;;4.40;62.70;;;;;;4925775;28;115174;-85
2023/01/17 06:01:53;;;;;;;8.02;4.40;;;4.40;62.80;;;;;;4907996;28;117814;-84
2023/01/17 06:04:20;;;;;;;7.70;4.38;;;4.50;62.80;;;;;;4926020;28;114598;-82
2023/01/17 06:06:47;;;;;;;9.32;4.68;;;4.50;62.80;;;;;;4886666;28;114835;-85
2023/01/17 06:09:14;;;;;;;7.93;5.40;;;4.60;62.80;;;;;;4915612;28;119437;-84
2023/01/17 06:11:43;;;;;;;9.32;5.20;;;4.60;62.90;;;;;;4919613;28;114642;-84
2023/01/17 06:14:10;;;;;;;7.75;4.93;;;4.60;62.90;;;;;;4903945;28;114713;-86
2023/01/17 06:16:40;;;;;;;9.27;5.22;;;4.60;63.10;;;;;;4903898;28;114993;-84
2023/01/17 06:19:10;;;;;;;9.00;5.47;;;4.60;62.90;;;;;;4915114;28;115139;-84
2023/01/17 06:21:37;;;;;;;9.15;6.03;;;4.70;63.00;;;;;;4903641;28;116360;-85
2023/01/17 06:24:04;;;;;;;9.52;5.32;;;4.70;62.90;;;;;;4918039;28;114997;-86
2023/01/17 06:26:32;;;;;;;14.15;6.63;;;4.70;62.70;;;;;;4917416;28;114434;-87
2023/01/17 06:29:00;;;;;;;10.65;6.28;;;4.70;64.20;;;;;;4902939;28;116217;-87
2023/01/17 06:31:27;;;;;;;13.35;6.97;;;4.60;63.70;;;;;;4902518;28;118826;-86
2023/01/17 06:34:00;;;;;;;17.00;7.88;;;4.70;63.70;;;;;;4920120;28;114721;-87
2023/01/17 06:36:32;;;;;;;12.95;7.35;;;4.70;63.60;;;;;;4906084;28;114414;-86
2023/01/17 06:38:59;;;;;;;11.20;6.95;;;4.70;63.60;;;;;;4919628;28;115220;-85
2023/01/17 06:41:26;;;;;;;17.52;9.90;;;4.70;63.50;;;;;;4906702;28;116431;-85
2023/01/17 06:43:54;;;;;;;11.27;6.80;;;4.70;63.50;;;;;;4905034;28;114604;-86
2023/01/17 06:46:22;;;;;;;12.13;7.32;;;4.70;63.60;;;;;;4910618;28;114951;-86
2023/01/17 06:48:49;;;;;;;14.90;8.13;;;4.70;63.50;;;;;;4907054;28;114557;-86
2023/01/17 06:51:16;;;;;;;12.70;6.90;;;4.80;63.60;;;;;;4921637;28;115770;-86
2023/01/17 06:53:43;;;;;;;14.27;6.80;;;4.80;63.50;;;;;;4921856;28;114508;-86
2023/01/17 06:56:11;;;;;;;16.20;7.80;;;4.80;63.40;;;;;;4921817;28;114739;-86
2023/01/17 06:58:38;;;;;;;26.02;8.85;;;4.90;63.40;;;;;;4923169;28;115247;-85
2023/01/17 07:01:11;;;;;;;33.03;8.45;;;4.80;63.40;;;;;;4923577;28;114985;-86
2023/01/17 07:03:38;;;;;;;18.30;8.38;;;4.90;63.50;;;;;;4909913;28;114628;-86
2023/01/17 07:06:08;;;;;;;11.98;6.60;;;4.90;63.40;;;;;;4907934;28;114758;-86
2023/01/17 07:08:35;;;;;;;13.88;6.47;;;4.90;63.60;;;;;;4907049;28;115643;-86
2023/01/17 07:11:04;;;;;;;12.35;6.13;;;4.90;63.50;;;;;;4923515;28;114742;-86
2023/01/17 07:13:37;;;;;;;14.43;6.65;;;4.90;63.50;;;;;;4908431;28;114766;-86
2023/01/17 07:16:05;;;;;;;22.67;8.73;;;4.90;63.70;;;;;;4907425;28;114622;-86
2023/01/17 07:18:33;;;;;;;17.67;8.60;;;4.90;63.50;;;;;;4922690;28;117070;-85
2023/01/17 07:21:00;;;;;;;14.20;6.78;;;4.90;63.50;;;;;;4892326;28;114658;-85
2023/01/17 07:23:27;;;;;;;12.50;6.50;;;4.90;63.40;;;;;;4924314;28;114298;-86
2023/01/17 07:25:56;;;;;;;9.27;5.43;;;4.90;63.10;;;;;;4907478;28;114930;-86
2023/01/17 07:28:25;;;;;;;11.93;5.45;;;4.90;63.10;;;;;;4875202;28;115270;-87
2023/01/17 07:30:52;;;;;;;11.40;5.63;;;4.90;63.00;;;;;;4888786;28;117209;-86
2023/01/17 07:33:20;;;;;;;8.95;5.05;;;5.00;62.70;;;;;;4889923;28;114568;-84
2023/01/17 07:35:47;;;;;;;10.68;5.50;;;4.90;62.70;;;;;;4904601;28;114702;-85
2023/01/17 07:38:18;;;;;;;12.02;6.30;;;4.90;62.70;;;;;;4907743;28;115183;-85
2023/01/17 07:40:46;;;;;;;11.18;6.50;;;4.90;62.80;;;;;;4904347;28;118778;-84
2023/01/17 07:43:13;;;;;;;11.73;6.53;;;4.90;62.80;;;;;;4890742;28;114503;-84
2023/01/17 07:45:49;;;;;;;11.57;6.63;;;4.90;62.80;;;;;;4908383;28;114429;-85
2023/01/17 07:48:22;;;;;;;12.05;6.80;;;4.90;63.00;;;;;;4924864;28;115560;-85
2023/01/17 07:50:56;;;;;;;14.05;7.60;;;4.90;63.10;;;;;;4909127;28;114651;-85
2023/01/17 07:53:25;;;;;;;15.48;7.53;;;4.90;63.30;;;;;;4926734;28;114746;-84
2023/01/17 07:55:53;;;;;;;11.93;7.88;;;4.90;63.20;;;;;;4926119;28;114735;-85
2023/01/17 07:58:20;;;;;;;13.70;8.55;;;4.90;63.20;;;;;;4889672;28;115728;-86
2023/01/17 08:00:48;;;;;;;14.77;7.20;;;4.90;63.20;;;;;;4893922;28;114922;-85
2023/01/17 08:03:16;;;;;;;15.05;7.47;;;4.90;63.20;;;;;;4910342;28;114808;-85
2023/01/17 08:05:54;;;;;;;13.45;7.55;;;4.90;63.20;;;;;;4910404;28;114606;-85
2023/01/17 08:08:21;;;;;;;13.35;7.45;;;5.00;63.30;;;;;;4924771;28;115111;-85
2023/01/17 08:10:50;;;;;;;12.85;6.82;;;5.00;63.20;;;;;;4908647;28;114779;-85
2023/01/17 08:13:17;;;;;;;12.48;7.05;;;5.00;63.30;;;;;;4927291;28;114644;-85
2023/01/17 08:15:48;;;;;;;10.23;6.82;;;4.90;63.30;;;;;;4927176;28;115313;-85
2023/01/17 08:18:16;;;;;;;10.90;7.43;;;5.00;63.40;;;;;;4892688;28;115207;-84
2023/01/17 08:20:44;;;;;;;10.20;6.40;;;5.00;63.20;;;;;;4924533;28;115174;-86
2023/01/17 08:23:11;;;;;;;18.88;8.57;;;5.10;63.20;;;;;;4926049;28;114405;-85
2023/01/17 08:25:39;;;;;;;14.48;8.05;;;5.10;63.30;;;;;;4910633;28;114551;-85
2023/01/17 08:28:06;;;;;;;17.08;7.93;;;5.10;63.20;;;;;;4892333;28;116231;-85
2023/01/17 08:30:33;;;;;;;16.35;8.32;;;5.10;63.20;;;;;;4925049;28;117491;-86
2023/01/17 08:33:01;;;;;;;18.67;9.15;;;5.10;63.20;;;;;;4908363;28;116792;-87
2023/01/17 08:35:29;;;;;;;18.10;9.43;;;5.10;63.30;;;;;;4917060;28;114589;-86
2023/01/17 08:37:58;;;;;;;18.98;9.73;;;5.00;63.30;;;;;;4889580;28;115549;-86
2023/01/17 08:40:25;;;;;;;16.58;7.78;;;5.00;63.50;;;;;;4888666;28;114743;-86
2023/01/17 08:42:55;;;;;;;17.25;8.50;;;5.00;63.60;;;;;;4874593;28;114836;-90
2023/01/17 08:45:22;;;;;;;15.60;8.80;;;4.90;63.60;;;;;;4874210;28;119405;-88
2023/01/17 08:47:49;;;;;;;12.93;7.60;;;4.90;63.70;;;;;;4872016;28;118682;-85
2023/01/17 08:50:19;;;;;;;14.50;8.73;;;4.90;63.80;;;;;;4905144;28;114814;-85
2023/01/17 08:52:47;;;;;;;13.65;7.32;;;4.90;63.80;;;;;;4888526;28;114497;-85
2023/01/17 08:55:15;;;;;;;11.77;7.13;;;4.90;64.00;;;;;;4890880;28;114696;-86
2023/01/17 08:57:42;;;;;;;13.10;7.20;;;5.00;64.10;;;;;;4889066;28;115345;-85
2023/01/17 09:00:10;;;;;;;18.30;8.10;;;5.00;64.10;;;;;;4873742;28;114857;-85
2023/01/17 09:02:37;;;;;;;14.23;8.65;;;5.10;64.00;;;;;;4889993;28;114807;-85
2023/01/17 09:05:05;;;;;;;21.10;9.68;;;5.20;64.00;;;;;;4890317;28;114599;-85
2023/01/17 09:07:33;;;;;;;16.27;8.98;;;5.20;63.90;;;;;;4903622;28;116403;-87
2023/01/17 09:10:00;;;;;;;20.48;9.25;;;5.30;63.90;;;;;;4905373;28;114791;-85
2023/01/17 09:12:31;;;;;;;15.57;8.20;;;5.30;63.80;;;;;;4890471;28;114942;-85
2023/01/17 09:14:59;;;;;;;12.75;7.75;;;5.40;63.80;;;;;;4904567;28;114672;-84
2023/01/17 09:17:26;;;;;;;12.40;7.35;;;5.50;63.50;;;;;;4890976;28;117972;-86
2023/01/17 09:19:53;;;;;;;14.77;8.38;;;5.50;63.40;;;;;;4904606;28;118563;-86
2023/01/17 09:22:21;;;;;;;12.15;6.55;;;5.50;63.40;;;;;;4907704;28;114492;-86
2023/01/17 09:24:48;;;;;;;11.88;6.40;;;5.50;63.30;;;;;;4905283;28;114590;-84
2023/01/17 09:27:15;;;;;;;12.55;7.20;;;5.60;63.10;;;;;;4906011;28;115126;-85
2023/01/17 09:29:42;;;;;;;12.15;7.68;;;5.60;63.00;;;;;;4888058;28;119343;-85
2023/01/17 09:32:10;;;;;;;10.88;5.97;;;5.60;62.80;;;;;;4902757;28;115687;-85
2023/01/17 09:34:39;;;;;;;10.85;6.18;;;5.70;62.60;;;;;;4908149;28;114683;-85
2023/01/17 09:37:10;;;;;;;11.30;6.15;;;5.70;62.60;;;;;;4923985;28;115227;-85
2023/01/17 09:39:40;;;;;;;9.63;5.35;;;5.80;62.60;;;;;;4906744;28;117902;-86
2023/01/17 09:42:11;;;;;;;9.38;6.13;;;5.90;62.30;;;;;;4919479;28;114455;-86
2023/01/17 09:44:57;;;;;;;7.93;5.22;;;6.00;62.30;;;;;;4921981;28;116870;-84
2023/01/17 09:47:51;;;;;;;8.43;5.00;;;6.10;61.40;;;;;;4896869;28;116595;-84
2023/01/17 09:51:11;;;;;;;10.20;5.90;;;6.20;61.20;;;;;;4907772;28;114818;-84
2023/01/17 09:53:42;;;;;;;11.23;6.35;;;6.20;60.80;;;;;;4901641;28;114933;-85
2023/01/17 09:56:13;;;;;;;8.63;4.68;;;6.40;60.90;;;;;;4905558;28;114618;-84
2023/01/17 09:59:07;;;;;;;9.35;4.78;;;6.50;60.20;;;;;;4876261;28;118566;-84
2023/01/17 10:02:01;;;;;;;11.60;4.78;;;6.60;59.60;;;;;;4881581;28;118755;-85
2023/01/17 10:04:50;;;;;;;10.13;4.68;;;6.70;59.10;;;;;;4890824;28;114706;-86
2023/01/17 10:08:11;;;;;;;6.45;3.60;;;6.70;58.40;;;;;;4890634;28;114554;-84
2023/01/17 10:11:09;;;;;;;8.20;4.30;;;6.80;58.10;;;;;;4882560;28;117439;-84
2023/01/17 10:14:08;;;;;;;7.80;4.40;;;6.80;57.40;;;;;;4912469;28;114679;-85
2023/01/17 10:17:12;;;;;;;7.97;3.85;;;6.80;57.30;;;;;;4889305;28;114774;-85
2023/01/17 10:20:14;;;;;;;7.55;4.50;;;6.90;57.10;;;;;;4907820;28;115288;-85
2023/01/17 10:23:04;;;;;;;8.00;3.90;;;6.90;56.40;;;;;;4922141;28;115356;-86
2023/01/17 10:25:47;;;;;;;9.50;4.18;;;6.90;56.20;;;;;;4900725;28;116629;-88
2023/01/17 10:28:40;;;;;;;6.57;2.90;;;6.90;55.70;;;;;;4895687;28;115201;-87
2023/01/17 10:31:11;;;;;;;5.30;2.47;;;7.00;55.30;;;;;;4924879;28;116066;-87
2023/01/17 10:33:46;;;;;;;4.40;2.40;;;6.90;55.20;;;;;;4903645;28;115099;-86
2023/01/17 10:36:25;;;;;;;4.93;2.70;;;7.00;54.50;;;;;;4871980;28;121053;-86
2023/01/17 10:39:01;;;;;;;6.28;2.40;;;7.00;54.20;;;;;;4888114;28;114480;-84
2023/01/17 10:41:30;;;;;;;4.85;2.75;;;7.00;54.00;;;;;;4886286;28;114853;-87
2023/01/17 10:47:23;;;;;;;4.70;2.40;;;6.90;53.50;;;;;;4902709;28;115979;-84
2023/01/17 10:49:52;;;;;;;6.30;3.58;;;6.70;53.70;;;;;;4888083;28;114523;-86
2023/01/17 10:52:46;;;;;;;6.65;2.80;;;6.70;53.80;;;;;;4902571;28;114838;-85
2023/01/17 10:55:52;;;;;;;4.57;2.28;;;6.70;53.50;;;;;;4902116;28;116044;-85
2023/01/17 10:58:22;;;;;;;5.75;2.42;;;6.70;53.70;;;;;;4871443;28;114766;-84
2023/01/17 11:01:13;;;;;;;5.00;2.72;;;6.70;53.60;;;;;;4903730;28;114526;-83
2023/01/17 11:03:43;;;;;;;6.25;2.55;;;6.70;53.40;;;;;;4887392;28;114529;-85
2023/01/17 11:06:27;;;;;;;4.78;2.50;;;6.70;53.50;;;;;;4901531;28;118088;-85
2023/01/17 11:09:00;;;;;;;5.13;2.45;;;6.70;52.70;;;;;;4905436;28;115082;-85
2023/01/17 11:11:30;;;;;;;5.63;2.80;;;6.80;52.90;;;;;;4904567;28;114728;-85
2023/01/17 11:14:16;;;;;;;5.95;2.50;;;6.70;53.20;;;;;;4903381;28;114550;-84
2023/01/17 11:16:43;;;;;;;4.75;2.30;;;6.90;52.50;;;;;;4900260;28;115893;-83
2023/01/17 11:19:37;;;;;;;6.85;2.65;;;6.80;52.50;;;;;;4885166;28;115931;-85
2023/01/17 11:22:05;;;;;;;4.10;2.33;;;6.90;51.70;;;;;;4904310;28;119120;-84
2023/01/17 11:24:54;;;;;;;5.13;2.83;;;6.90;52.10;;;;;;4890274;28;114461;-85
2023/01/17 11:27:26;;;;;;;5.68;2.35;;;6.90;52.10;;;;;;4903910;28;118248;-85
2023/01/17 11:30:06;;;;;;;8.27;3.05;;;6.80;52.40;;;;;;4883169;28;117943;-85
2023/01/17 11:33:09;;;;;;;4.75;2.50;;;6.90;52.10;;;;;;4905824;28;115035;-86
2023/01/17 11:35:43;;;;;;;5.72;2.97;;;7.00;52.80;;;;;;4879978;28;114715;-85
2023/01/17 11:38:13;;;;;;;4.22;2.30;;;6.90;52.60;;;;;;4906658;28;116185;-86
2023/01/17 11:40:44;;;;;;;6.03;2.72;;;6.80;52.20;;;;;;4923475;28;114692;-85
2023/01/17 11:43:13;;;;;;;4.07;2.53;;;6.80;52.10;;;;;;4906982;28;114642;-85
2023/01/17 11:45:40;;;;;;;4.25;2.40;;;6.80;52.20;;;;;;4923517;28;114584;-85
2023/01/17 11:48:07;;;;;;;4.15;2.30;;;6.80;52.20;;;;;;4906814;28;115001;-86
2023/01/17 11:50:37;;;;;;;5.68;2.70;;;6.80;52.10;;;;;;4921268;28;117046;-85
2023/01/17 11:53:30;;;;;;;4.95;2.38;;;6.80;51.70;;;;;;4890629;28;114706;-85
2023/01/17 11:56:08;;;;;;;4.47;2.03;;;6.80;51.70;;;;;;4905538;28;114846;-84
2023/01/17 11:58:42;;;;;;;4.68;2.03;;;6.80;51.40;;;;;;4906262;28;115733;-85
2023/01/17 12:01:32;;;;;;;5.25;2.30;;;6.80;51.00;;;;;;4921617;28;115274;-85
2023/01/17 12:04:26;;;;;;;5.13;2.08;;;6.80;51.50;;;;;;4920692;28;114668;-84
2023/01/17 12:07:36;;;;;;;5.55;3.08;;;6.80;51.60;;;;;;4923144;28;114725;-84
2023/01/17 12:10:45;;;;;;;5.05;2.90;;;6.80;51.60;;;;;;4922011;28;115196;-85
2023/01/17 12:14:01;;;;;;;4.95;2.65;;;6.80;51.50;;;;;;4893648;28;114843;-84
2023/01/17 12:16:57;;;;;;;4.82;2.20;;;6.70;51.00;;;;;;4923946;28;114625;-84
2023/01/17 12:19:48;;;;;;;4.65;2.40;;;6.60;51.50;;;;;;4923288;28;114499;-84
2023/01/17 12:22:40;;;;;;;4.93;2.80;;;6.60;52.00;;;;;;4922486;28;115693;-85
2023/01/17 12:25:45;;;;;;;5.65;2.20;;;6.60;52.00;;;;;;4922744;28;114644;-87
2023/01/17 12:29:02;;;;;;;4.60;2.30;;;6.70;52.00;;;;;;4924562;28;114885;-89
2023/01/17 12:31:51;;;;;;;4.57;2.20;;;6.60;52.00;;;;;;4907701;28;117208;-87
2023/01/17 12:34:38;;;;;;;6.50;2.72;;;6.70;52.00;;;;;;4926957;28;115148;-88
2023/01/17 12:37:39;;;;;;;5.55;2.75;;;6.80;52.00;;;;;;4903987;28;114680;-88
2023/01/17 12:40:17;;;;;;;;;;;6.90;51.70;;;;;;4866281;28;114385;-87
2023/01/17 12:43:15;;;;;;;4.72;2.72;;;6.80;52.80;;;;;;4890774;28;114716;-85
2023/01/17 12:45:43;;;;;;;5.60;2.80;;;6.90;51.70;;;;;;4873001;28;115137;-87
2023/01/17 12:48:40;;;;;;;4.07;2.35;;;6.90;51.50;;;;;;4889877;28;114753;-86
2023/01/17 12:51:18;;;;;;;3.38;2.22;;;6.90;51.00;;;;;;4850076;28;116454;-86
2023/01/17 12:54:00;;;;;;;3.85;1.75;;;7.00;50.80;;;;;;4871682;28;114734;-86
2023/01/17 12:56:40;;;;;;;4.00;2.17;;;7.00;50.50;;;;;;4887950;28;118582;-86
2023/01/17 12:59:36;;;;;;;3.80;2.22;;;7.00;50.50;;;;;;4882288;28;117616;-85
2023/01/17 13:02:47;;;;;;;5.25;2.55;;;6.90;50.20;;;;;;4884673;28;114928;-84
2023/01/17 13:05:49;;;;;;;5.43;2.50;;;6.90;50.30;;;;;;4852436;28;114703;-84
2023/01/17 13:08:35;;;;;;;5.60;2.40;;;6.90;50.50;;;;;;4842089;28;115300;-86
2023/01/17 13:11:35;;;;;;;4.80;2.33;;;6.90;50.40;;;;;;4865328;28;117184;-87
2023/01/17 13:14:07;;;;;;;4.47;2.30;;;7.00;50.30;;;;;;4873266;28;114889;-85
2023/01/17 13:16:45;;;;;;;6.82;2.35;;;6.90;50.30;;;;;;4867267;28;114720;-85
2023/01/17 13:20:08;;;;;;;7.38;2.50;;;6.90;50.00;;;;;;4865739;28;117594;-86
2023/01/17 13:22:52;;;;;;;5.60;2.75;;;6.90;50.10;;;;;;4874525;28;116945;-86
2023/01/17 13:25:51;;;;;;;6.07;3.22;;;6.80;50.30;;;;;;4888535;28;114895;-86
2023/01/17 13:29:15;;;;;;;5.43;2.50;;;6.80;49.70;;;;;;4878667;28;114831;-85
2023/01/17 13:32:21;;;;;;;4.57;2.45;;;6.80;49.50;;;;;;4876732;28;115031;-85
2023/01/17 13:35:22;;;;;;;4.45;2.25;;;6.70;49.20;;;;;;4884836;28;117737;-84
2023/01/17 13:38:09;;;;;;;3.50;2.00;;;6.70;49.80;;;;;;4868514;28;114654;-85
2023/01/17 13:40:50;;;;;;;6.00;2.35;;;6.70;49.70;;;;;;4889876;28;114672;-86
2023/01/17 13:43:33;;;;;;;4.20;2.13;;;6.60;49.00;;;;;;4897664;28;117471;-87
2023/01/17 13:46:11;;;;;;;4.75;2.40;;;6.60;49.30;;;;;;4890511;28;115112;-87
2023/01/17 13:48:39;;;;;;;3.65;1.88;;;6.50;49.60;;;;;;4891248;28;114517;-85
2023/01/17 13:51:13;;;;;;;3.90;2.10;;;6.40;49.80;;;;;;4906601;28;114407;-84
2023/01/17 13:53:40;;;;;;;7.20;3.13;;;6.50;49.70;;;;;;4872878;28;115278;-85
2023/01/17 13:56:36;;;;;;;6.28;3.30;;;6.40;50.50;;;;;;4896935;28;117949;-85
2023/01/17 13:59:07;;;;;;;5.38;3.25;;;6.50;50.70;;;;;;4875765;28;114493;-86
2023/01/17 14:01:37;;;;;;;8.18;4.15;;;6.40;50.70;;;;;;4874724;28;114640;-85
2023/01/17 14:04:11;;;;;;;6.72;3.88;;;6.20;51.00;;;;;;4888194;28;115325;-85
2023/01/17 14:06:51;;;;;;;7.15;4.05;;;6.10;51.40;;;;;;4888527;28;114749;-86
2023/01/17 14:09:29;;;;;;;8.02;4.10;;;6.00;51.90;;;;;;4873564;28;114848;-86
2023/01/17 14:12:09;;;;;;;7.30;4.88;;;5.70;52.40;;;;;;4885499;28;115158;-87
2023/01/17 14:14:39;;;;;;;7.47;4.05;;;5.50;53.00;;;;;;4901192;28;115277;-86
2023/01/17 14:17:24;;;;;;;9.88;3.90;;;5.40;53.50;;;;;;4888716;28;114745;-84
2023/01/17 14:19:53;;;;;;;8.43;3.92;;;5.40;53.40;;;;;;4887715;28;115503;-85
2023/01/17 14:22:27;;;;;;;7.95;4.38;;;5.20;53.60;;;;;;4888468;28;114682;-84
2023/01/17 14:25:13;;;;;;;7.53;4.20;;;5.20;53.90;;;;;;4857239;28;118838;-86
2023/01/17 14:27:41;;;;;;;9.85;4.07;;;5.20;54.20;;;;;;4883873;28;116935;-85
2023/01/17 14:30:32;;;;;;;13.85;5.95;;;5.20;54.20;;;;;;4887789;28;114837;-86
2023/01/17 14:33:04;;;;;;;8.13;4.57;;;5.20;54.10;;;;;;4904597;28;118900;-85
2023/01/17 14:35:36;;;;;;;6.95;4.40;;;5.20;54.20;;;;;;4887191;28;118264;-85
2023/01/17 14:38:17;;;;;;;7.18;4.45;;;5.10;54.30;;;;;;4921463;28;114877;-85
2023/01/17 14:40:56;;;;;;;10.18;5.38;;;5.10;54.60;;;;;;4922702;28;116416;-86
2023/01/17 14:43:25;;;;;;;9.45;4.63;;;5.20;54.60;;;;;;4907956;28;114511;-85
2023/01/17 14:46:06;;;;;;;9.27;4.38;;;5.10;54.40;;;;;;4890467;28;115437;-84
2023/01/17 14:48:34;;;;;;;9.95;5.53;;;5.10;54.60;;;;;;4905680;28;117333;-85
2023/01/17 14:51:13;;;;;;;10.52;5.70;;;5.00;54.60;;;;;;4907170;28;114971;-85